Time;durP1;ratioP1;P1;durP2;ratioP2;P2;SDS_P1;SDS_P2;PMS_P1;PMS_P2;Temp;Humidity;BMP_temperature;BMP_pressure;BME280_temperature;BME280_humidity;BME280_pressure;Samples;Min_cycle;Max_cycle;Signal;HPM_P1;HPM_P2
2022/05/27 00:01:50;;;;;;;6.27;2.50;;;12.00;59.80;;;;;;5047867;28;46976;-61
2022/05/27 00:04:16;;;;;;;5.53;2.30;;;11.90;59.40;;;;;;5051912;28;46365;-62
2022/05/27 00:06:41;;;;;;;3.83;2.33;;;12.00;59.50;;;;;;5048962;28;46453;-62
2022/05/27 00:09:07;;;;;;;3.57;2.30;;;12.00;59.50;;;;;;5045160;28;46402;-61
2022/05/27 00:11:33;;;;;;;11.80;2.73;;;12.00;59.50;;;;;;5050512;28;47154;-63
2022/05/27 00:13:59;;;;;;;6.60;2.63;;;12.00;59.50;;;;;;5044009;28;46401;-62
2022/05/27 00:16:25;;;;;;;3.87;2.33;;;12.00;59.80;;;;;;5053260;28;46028;-61
2022/05/27 00:18:51;;;;;;;5.63;2.90;;;11.90;59.90;;;;;;5048210;28;46264;-62
2022/05/27 00:21:17;;;;;;;8.00;2.97;;;11.80;59.90;;;;;;5047593;28;46283;-61
2022/05/27 00:23:43;;;;;;;5.60;3.07;;;11.80;60.00;;;;;;5051245;28;46369;-61
2022/05/27 00:26:08;;;;;;;4.67;2.93;;;11.80;60.10;;;;;;5045821;28;46410;-62
2022/05/27 00:28:34;;;;;;;6.30;2.77;;;11.80;60.10;;;;;;5052800;28;45961;-62
2022/05/27 00:31:00;;;;;;;3.80;2.23;;;11.80;60.10;;;;;;5045931;28;47034;-61
2022/05/27 00:33:25;;;;;;;5.87;3.20;;;11.80;60.20;;;;;;5052107;28;46369;-61
2022/05/27 00:35:51;;;;;;;11.07;2.53;;;11.80;60.20;;;;;;5055524;28;46224;-61
2022/05/27 00:38:18;;;;;;;4.00;2.20;;;11.80;60.40;;;;;;5053940;28;45910;-62
2022/05/27 00:40:46;;;;;;;5.73;2.33;;;11.70;60.40;;;;;;5052076;28;46511;-61
2022/05/27 00:43:12;;;;;;;4.40;2.67;;;11.70;61.60;;;;;;5055920;28;46576;-61
2022/05/27 00:45:40;;;;;;;3.80;2.40;;;11.70;60.50;;;;;;5062823;28;46551;-63
2022/05/27 00:48:13;;;;;;;8.33;3.10;;;11.60;60.50;;;;;;5051921;28;46368;-61
2022/05/27 00:50:42;;;;;;;16.87;3.47;;;11.60;60.70;;;;;;5057322;28;47410;-61
2022/05/27 00:53:10;;;;;;;4.80;2.10;;;11.60;60.80;;;;;;5056067;28;45732;-62
2022/05/27 00:55:53;;;;;;;4.90;3.03;;;11.50;61.10;;;;;;5056484;28;46592;-62
2022/05/27 00:58:33;;;;;;;4.33;2.93;;;11.50;60.90;;;;;;5051683;28;46419;-62
2022/05/27 01:01:00;;;;;;;6.00;2.97;;;11.40;61.10;;;;;;5050739;28;47033;-63
2022/05/27 01:03:27;;;;;;;5.33;2.93;;;11.40;61.10;;;;;;5059037;28;46330;-61
2022/05/27 01:05:53;;;;;;;6.67;3.00;;;11.40;61.10;;;;;;5052638;28;46436;-62
2022/05/27 01:08:21;;;;;;;4.67;2.73;;;11.40;61.10;;;;;;5054814;28;46577;-62
2022/05/27 01:11:15;;;;;;;5.50;3.30;;;11.40;61.10;;;;;;5055162;28;46307;-62
2022/05/27 01:14:19;;;;;;;5.60;3.47;;;11.40;61.20;;;;;;5053285;28;46495;-61
2022/05/27 01:17:11;;;;;;;4.20;3.03;;;11.40;61.10;;;;;;5047939;28;46490;-62
2022/05/27 01:20:19;;;;;;;4.50;3.00;;;11.40;61.10;;;;;;5050109;28;46583;-60
2022/05/27 01:23:06;;;;;;;10.10;3.53;;;11.40;61.00;;;;;;5050235;28;46344;-62
2022/05/27 01:25:46;;;;;;;7.53;3.00;;;11.40;61.00;;;;;;5048113;28;45826;-62
2022/05/27 01:28:34;;;;;;;11.43;4.13;;;11.40;61.20;;;;;;5052773;28;46603;-60
2022/05/27 01:31:25;;;;;;;5.53;3.63;;;11.40;61.30;;;;;;5049719;28;46425;-62
2022/05/27 01:33:59;;;;;;;4.67;3.23;;;11.40;62.80;;;;;;5052996;28;45965;-62
2022/05/27 01:36:47;;;;;;;8.33;3.30;;;11.40;61.60;;;;;;5048671;28;46345;-62
2022/05/27 01:39:12;;;;;;;4.10;3.57;;;11.40;61.90;;;;;;5051142;28;46522;-61
2022/05/27 01:41:57;;;;;;;5.50;3.50;;;11.40;61.90;;;;;;5051289;28;46414;-59
2022/05/27 01:44:41;;;;;;;8.73;3.60;;;11.40;62.00;;;;;;5045320;28;46319;-63
2022/05/27 01:47:13;;;;;;;5.13;3.10;;;11.40;62.30;;;;;;5054296;28;46572;-61
2022/05/27 01:49:50;;;;;;;6.60;3.00;;;11.30;62.10;;;;;;5054075;28;46298;-63
2022/05/27 01:52:20;;;;;;;7.70;3.27;;;11.30;62.30;;;;;;5051575;28;45773;-62
2022/05/27 01:54:45;;;;;;;5.23;3.43;;;11.30;62.20;;;;;;5053436;28;46385;-62
2022/05/27 01:57:19;;;;;;;3.53;2.63;;;11.30;63.50;;;;;;5052112;28;45793;-63
2022/05/27 02:00:03;;;;;;;4.47;2.90;;;11.30;62.30;;;;;;5054565;28;46340;-62
2022/05/27 02:02:30;;;;;;;4.60;3.53;;;11.30;62.50;;;;;;5053741;28;46483;-62
2022/05/27 02:05:10;;;;;;;5.07;3.10;;;11.30;62.30;;;;;;5051097;28;46488;-61
2022/05/27 02:07:50;;;;;;;7.13;3.23;;;11.40;62.10;;;;;;5051333;28;46430;-61
2022/05/27 02:10:25;;;;;;;5.90;3.17;;;11.50;61.90;;;;;;5051578;28;45898;-61
2022/05/27 02:12:56;;;;;;;7.20;3.27;;;11.60;61.60;;;;;;5052225;28;46370;-61
2022/05/27 02:15:38;;;;;;;5.93;3.57;;;11.80;61.30;;;;;;5049958;28;46707;-62
2022/05/27 02:18:27;;;;;;;6.47;3.70;;;11.90;61.20;;;;;;5050404;28;46323;-61
2022/05/27 02:21:00;;;;;;;5.30;3.10;;;12.10;60.80;;;;;;5053509;28;46428;-62
2022/05/27 02:23:43;;;;;;;6.80;3.50;;;12.20;60.50;;;;;;5050474;28;45834;-63
2022/05/27 02:26:14;;;;;;;5.80;3.70;;;12.30;60.40;;;;;;5047836;28;47157;-62
2022/05/27 02:28:43;;;;;;;4.17;3.10;;;12.40;60.40;;;;;;5050461;28;46416;-61
2022/05/27 02:31:14;;;;;;;6.40;3.87;;;12.50;60.30;;;;;;5047187;28;46395;-62
2022/05/27 02:36:46;;;;;;;5.13;3.53;;;12.60;60.40;;;;;;5046606;28;46888;-61
2022/05/27 02:39:12;;;;;;;5.80;3.30;;;12.80;61.70;;;;;;5054430;28;46318;-62
2022/05/27 02:42:01;;;;;;;5.10;3.43;;;12.90;60.30;;;;;;5049788;28;46365;-62
2022/05/27 02:44:38;;;;;;;6.93;3.70;;;12.90;60.30;;;;;;5045720;28;47042;-61
2022/05/27 02:47:17;;;;;;;5.00;3.50;;;12.90;60.40;;;;;;5047816;28;48079;-62
2022/05/27 02:49:50;;;;;;;5.20;3.40;;;13.00;60.40;;;;;;5049525;28;46432;-62
2022/05/27 02:52:24;;;;;;;4.30;3.20;;;13.00;60.50;;;;;;5051411;28;45828;-60
2022/05/27 02:55:18;;;;;;;5.27;3.37;;;13.00;60.80;;;;;;5050077;28;46371;-61
2022/05/27 02:57:45;;;;;;;6.77;3.77;;;13.00;61.00;;;;;;5050223;28;47118;-60
2022/05/27 03:00:18;;;;;;;5.17;3.30;;;13.00;60.80;;;;;;5045105;28;46302;-61
2022/05/27 03:02:44;;;;;;;6.67;3.90;;;13.10;61.00;;;;;;5050793;28;46445;-62
2022/05/27 03:05:10;;;;;;;5.43;3.70;;;13.10;61.10;;;;;;5055561;28;46476;-61
2022/05/27 03:07:58;;;;;;;4.90;3.43;;;13.10;61.20;;;;;;5047761;28;46560;-61
2022/05/27 03:10:35;;;;;;;4.63;3.00;;;13.20;61.20;;;;;;5047883;28;46358;-61
2022/05/27 03:13:25;;;;;;;4.73;3.17;;;13.20;61.20;;;;;;5053485;28;46290;-61
2022/05/27 03:16:06;;;;;;;4.10;2.93;;;13.20;61.30;;;;;;5049544;28;46338;-62
2022/05/27 03:18:46;;;;;;;6.10;2.80;;;13.30;61.50;;;;;;5045798;28;46301;-61
2022/05/27 03:21:29;;;;;;;5.80;3.30;;;13.30;61.40;;;;;;5052124;28;46410;-61
2022/05/27 03:24:00;;;;;;;7.00;3.90;;;13.40;61.40;;;;;;5047376;28;46459;-61
2022/05/27 03:26:36;;;;;;;6.27;3.17;;;13.40;61.10;;;;;;5050187;28;46323;-61
2022/05/27 03:29:17;;;;;;;11.37;3.53;;;13.50;61.00;;;;;;5047864;28;47164;-61
2022/05/27 03:31:54;;;;;;;6.67;3.57;;;13.60;60.80;;;;;;5055164;28;46256;-62
2022/05/27 03:34:25;;;;;;;5.00;2.60;;;13.70;60.70;;;;;;5048013;28;46343;-63
2022/05/27 03:37:02;;;;;;;6.00;3.10;;;13.70;60.80;;;;;;5052220;28;46425;-61
2022/05/27 03:39:43;;;;;;;6.03;2.80;;;13.70;61.00;;;;;;5049956;28;46349;-61
2022/05/27 03:42:10;;;;;;;9.30;3.77;;;13.70;61.10;;;;;;5051633;28;46559;-60
2022/05/27 03:44:36;;;;;;;5.23;3.20;;;13.70;61.10;;;;;;5053410;28;46465;-62
2022/05/27 03:47:03;;;;;;;8.53;3.57;;;13.80;61.30;;;;;;5049378;28;46609;-61
2022/05/27 03:49:29;;;;;;;6.10;3.10;;;13.80;61.30;;;;;;5049433;28;46202;-62
2022/05/27 03:51:58;;;;;;;5.30;3.10;;;13.80;61.30;;;;;;5051358;28;46410;-61
2022/05/27 03:54:23;;;;;;;7.93;3.67;;;13.90;61.20;;;;;;5049537;28;47589;-61
2022/05/27 03:56:50;;;;;;;5.80;2.90;;;14.00;61.20;;;;;;5052246;28;46331;-61
2022/05/27 03:59:17;;;;;;;4.93;2.97;;;14.00;61.30;;;;;;5046897;28;46533;-62
2022/05/27 04:01:46;;;;;;;7.67;2.77;;;14.00;61.30;;;;;;5049707;28;45762;-62
2022/05/27 04:04:14;;;;;;;10.00;3.10;;;14.00;61.40;;;;;;5049149;28;45843;-62
2022/05/27 04:06:40;;;;;;;6.20;2.77;;;14.10;61.40;;;;;;5046589;28;46489;-62
2022/05/27 04:09:06;;;;;;;4.00;2.57;;;14.10;61.40;;;;;;5053922;28;46382;-61
2022/05/27 04:11:31;;;;;;;4.10;2.80;;;14.20;61.50;;;;;;5048538;28;46486;-61
2022/05/27 04:13:57;;;;;;;4.03;2.40;;;14.20;61.20;;;;;;5051419;28;46445;-61
2022/05/27 04:16:24;;;;;;;3.70;2.43;;;14.20;61.10;;;;;;5052975;28;46326;-61
2022/05/27 04:18:50;;;;;;;5.10;2.80;;;14.20;61.10;;;;;;5059360;28;46572;-61
2022/05/27 04:21:16;;;;;;;6.13;3.03;;;14.30;61.10;;;;;;5053091;28;46417;-61
2022/05/27 04:23:42;;;;;;;4.80;3.20;;;14.30;62.40;;;;;;5058811;28;46372;-60
2022/05/27 04:26:08;;;;;;;5.80;2.87;;;14.30;61.10;;;;;;5055084;28;46545;-62
2022/05/27 04:28:34;;;;;;;4.00;2.97;;;14.40;61.10;;;;;;5055277;28;47182;-61
2022/05/27 04:31:02;;;;;;;3.80;2.50;;;14.40;61.10;;;;;;5056671;28;46452;-60
2022/05/27 04:33:28;;;;;;;3.53;2.50;;;14.50;61.00;;;;;;5061185;28;46507;-62
2022/05/27 04:35:54;;;;;;;5.53;2.67;;;14.60;61.10;;;;;;5056253;28;46406;-62
2022/05/27 04:38:23;;;;;;;7.47;2.87;;;14.70;60.80;;;;;;5051215;28;46606;-58
2022/05/27 04:40:49;;;;;;;3.80;2.27;;;14.80;60.50;;;;;;5054905;28;46621;-62
2022/05/27 04:43:15;;;;;;;6.37;2.63;;;14.80;60.50;;;;;;5053832;28;46442;-61
2022/05/27 04:45:41;;;;;;;5.83;2.47;;;14.90;60.30;;;;;;5052151;28;46855;-61
2022/05/27 04:48:07;;;;;;;3.77;2.23;;;15.00;60.40;;;;;;5052611;28;45954;-62
2022/05/27 04:50:33;;;;;;;5.80;2.00;;;15.40;60.00;;;;;;5052446;28;46404;-61
2022/05/27 04:52:59;;;;;;;3.67;2.20;;;16.20;59.20;;;;;;5051723;28;46316;-62
2022/05/27 04:55:25;;;;;;;3.30;1.80;;;16.60;58.00;;;;;;5054815;28;46427;-61
2022/05/27 04:57:54;;;;;;;3.40;1.87;;;17.60;57.60;;;;;;5050756;28;46545;-62
2022/05/27 05:00:30;;;;;;;4.87;1.80;;;18.80;55.10;;;;;;5053257;28;46350;-60
2022/05/27 05:02:56;;;;;;;3.90;2.03;;;19.60;52.70;;;;;;5053685;28;46425;-60
2022/05/27 05:05:26;;;;;;;5.00;2.07;;;20.50;50.70;;;;;;5051224;28;46430;-63
2022/05/27 05:08:05;;;;;;;3.93;1.90;;;21.10;48.60;;;;;;5054888;28;46334;-62
2022/05/27 05:10:32;;;;;;;5.73;2.10;;;21.90;46.30;;;;;;5046989;28;46461;-60
2022/05/27 05:12:58;;;;;;;5.47;2.00;;;22.40;45.50;;;;;;5054013;28;46298;-60
2022/05/27 05:15:25;;;;;;;2.80;1.63;;;23.00;44.00;;;;;;5049241;28;46636;-62
2022/05/27 05:17:51;;;;;;;3.77;1.83;;;23.50;42.00;;;;;;5048169;28;46380;-63
2022/05/27 05:20:24;;;;;;;5.37;2.00;;;24.20;39.50;;;;;;5047863;28;46444;-62
2022/05/27 05:22:49;;;;;;;3.30;1.90;;;24.60;38.30;;;;;;5047991;28;46449;-63
2022/05/27 05:25:15;;;;;;;5.47;1.90;;;25.20;36.10;;;;;;5050789;28;46417;-63
2022/05/27 05:27:41;;;;;;;5.43;1.90;;;25.60;34.10;;;;;;5043952;28;46628;-63
2022/05/27 05:30:13;;;;;;;5.30;1.97;;;26.10;32.70;;;;;;5053578;28;46595;-62
2022/05/27 05:32:39;;;;;;;4.57;1.93;;;26.50;31.40;;;;;;5047510;28;46367;-60
2022/05/27 05:35:06;;;;;;;3.57;1.70;;;27.00;29.60;;;;;;5050562;28;46417;-60
2022/05/27 05:37:32;;;;;;;5.67;2.20;;;27.30;28.00;;;;;;5046748;28;46319;-61
2022/05/27 05:39:57;;;;;;;9.23;2.00;;;27.80;27.50;;;;;;5048832;28;46416;-60
2022/05/27 05:42:23;;;;;;;3.30;2.00;;;27.90;26.60;;;;;;5052310;28;46468;-61
2022/05/27 05:44:49;;;;;;;6.07;2.20;;;28.00;26.10;;;;;;5048330;28;46688;-60
2022/05/27 05:47:14;;;;;;;4.17;1.80;;;28.30;25.40;;;;;;5049533;28;46431;-60
2022/05/27 05:49:41;;;;;;;2.80;1.90;;;28.40;24.90;;;;;;5050404;28;46424;-60
2022/05/27 05:52:07;;;;;;;3.20;1.67;;;28.60;24.30;;;;;;5049607;28;46605;-60
2022/05/27 05:54:33;;;;;;;3.60;1.80;;;28.50;24.00;;;;;;5057369;28;46444;-60
2022/05/27 05:57:01;;;;;;;7.40;2.20;;;28.30;24.40;;;;;;5050172;28;47207;-59
2022/05/27 05:59:31;;;;;;;3.97;1.63;;;27.50;26.60;;;;;;5045470;28;46404;-60
2022/05/27 06:01:59;;;;;;;4.50;1.57;;;26.00;29.50;;;;;;5048537;28;46461;-59
2022/05/27 06:04:24;;;;;;;5.03;1.67;;;25.00;32.60;;;;;;5051020;28;46768;-60
2022/05/27 06:06:50;;;;;;;5.67;2.00;;;24.20;34.20;;;;;;5050747;28;47830;-62
2022/05/27 06:09:17;;;;;;;3.10;1.70;;;23.50;35.80;;;;;;5048022;28;46749;-60
2022/05/27 06:11:43;;;;;;;11.53;2.17;;;22.90;36.70;;;;;;5054344;28;46485;-61
2022/05/27 06:14:08;;;;;;;7.90;1.73;;;22.50;36.30;;;;;;5050531;28;46417;-60
2022/05/27 06:16:34;;;;;;;4.30;1.80;;;22.30;36.80;;;;;;5051618;28;46430;-61
2022/05/27 06:18:59;;;;;;;7.13;1.60;;;22.10;37.20;;;;;;5053164;28;46349;-60
2022/05/27 06:21:26;;;;;;;4.83;1.80;;;21.90;37.20;;;;;;5050887;28;46322;-61
2022/05/27 06:23:52;;;;;;;3.20;1.63;;;21.80;36.80;;;;;;5052741;28;46317;-59
2022/05/27 06:26:18;;;;;;;4.07;1.60;;;21.90;35.80;;;;;;5051002;28;46373;-61
2022/05/27 06:34:24;;;;;;;9.93;2.20;;;21.40;35.30;;;;;;5050131;28;46378;-60
2022/05/27 06:36:55;;;;;;;6.03;1.67;;;21.20;35.10;;;;;;5051536;28;47088;-62
2022/05/27 06:39:21;;;;;;;3.60;1.63;;;21.10;35.00;;;;;;5045580;28;46394;-61
2022/05/27 06:41:47;;;;;;;2.90;1.70;;;21.10;35.00;;;;;;5046048;28;46886;-61
2022/05/27 06:44:12;;;;;;;4.17;1.80;;;21.10;35.00;;;;;;5052532;28;45963;-61
2022/05/27 06:46:38;;;;;;;4.40;1.60;;;21.10;35.10;;;;;;5049309;28;46471;-59
2022/05/27 06:49:06;;;;;;;3.83;1.80;;;21.30;35.20;;;;;;5050155;28;46435;-62
2022/05/27 06:51:34;;;;;;;4.60;2.07;;;21.50;35.10;;;;;;5051246;28;46264;-60
2022/05/27 06:54:00;;;;;;;3.40;1.80;;;21.40;35.00;;;;;;5052577;28;46731;-60
2022/05/27 06:56:25;;;;;;;7.53;2.40;;;21.30;35.20;;;;;;5049975;28;46430;-61
2022/05/27 06:58:51;;;;;;;7.63;1.90;;;21.20;35.10;;;;;;5054896;28;46452;-62
2022/05/27 07:01:16;;;;;;;3.53;1.93;;;21.10;35.00;;;;;;5049096;28;46533;-62
2022/05/27 07:03:42;;;;;;;7.77;1.77;;;21.00;35.10;;;;;;5054701;28;46451;-62
2022/05/27 07:06:10;;;;;;;3.60;1.70;;;20.80;36.40;;;;;;5049503;28;47308;-61
2022/05/27 07:08:36;;;;;;;5.70;1.97;;;20.80;37.10;;;;;;5048682;28;46365;-61
2022/05/27 07:11:03;;;;;;;3.53;1.70;;;20.90;37.00;;;;;;5052723;28;46677;-62
2022/05/27 07:13:29;;;;;;;3.97;1.70;;;21.00;36.40;;;;;;5048780;28;46501;-61
2022/05/27 07:15:55;;;;;;;9.00;1.97;;;21.00;36.30;;;;;;5051410;28;47364;-62
2022/05/27 07:18:21;;;;;;;3.50;1.80;;;21.00;36.00;;;;;;5049888;28;46768;-61
2022/05/27 07:20:46;;;;;;;4.83;1.57;;;21.00;35.70;;;;;;5050287;28;46438;-61
2022/05/27 07:23:13;;;;;;;6.73;1.80;;;21.00;35.60;;;;;;5049928;28;46363;-60
2022/05/27 07:25:40;;;;;;;11.50;2.37;;;21.20;35.10;;;;;;5049013;28;46400;-61
2022/05/27 07:28:07;;;;;;;6.83;1.87;;;21.30;35.80;;;;;;5045482;28;46368;-62
2022/05/27 07:30:36;;;;;;;8.23;1.87;;;21.40;35.30;;;;;;5048984;28;46428;-61
2022/05/27 07:33:02;;;;;;;6.60;1.73;;;21.50;35.50;;;;;;5046624;28;45841;-61
2022/05/27 07:35:28;;;;;;;4.10;1.97;;;21.60;35.50;;;;;;5049409;28;46234;-60
2022/05/27 07:37:54;;;;;;;9.90;1.80;;;21.40;35.30;;;;;;5046789;28;46407;-60
2022/05/27 07:40:21;;;;;;;5.13;2.13;;;21.30;36.50;;;;;;5046253;28;46370;-61
2022/05/27 07:42:48;;;;;;;5.10;1.87;;;21.00;38.20;;;;;;5050572;28;46047;-61
2022/05/27 07:45:15;;;;;;;7.23;2.03;;;21.00;36.90;;;;;;5044424;28;46489;-60
2022/05/27 07:47:41;;;;;;;3.83;1.63;;;21.20;36.50;;;;;;5052784;28;46432;-60
2022/05/27 07:50:08;;;;;;;14.37;1.70;;;21.00;36.40;;;;;;5045666;28;46551;-60
2022/05/27 07:52:34;;;;;;;7.80;1.80;;;21.00;36.60;;;;;;5051392;28;46654;-60
2022/05/27 07:55:00;;;;;;;3.77;2.00;;;21.20;36.20;;;;;;5049826;28;45997;-60
2022/05/27 07:57:28;;;;;;;5.20;1.90;;;21.40;35.80;;;;;;5047212;28;46319;-61
2022/05/27 07:59:54;;;;;;;5.73;1.90;;;21.70;35.60;;;;;;5051449;28;46399;-61
2022/05/27 08:02:20;;;;;;;8.20;2.40;;;21.70;35.60;;;;;;5046014;28;46669;-59
2022/05/27 08:04:46;;;;;;;4.60;1.60;;;21.40;35.40;;;;;;5053879;28;48014;-61
2022/05/27 08:07:12;;;;;;;4.40;2.20;;;21.10;36.10;;;;;;5047508;28;46712;-60
2022/05/27 08:09:37;;;;;;;6.10;2.10;;;21.20;36.40;;;;;;5051101;28;46400;-61
2022/05/27 08:12:03;;;;;;;4.13;2.17;;;21.20;36.90;;;;;;5052232;28;46295;-61
2022/05/27 08:14:29;;;;;;;3.93;1.43;;;21.10;37.00;;;;;;5046196;28;46417;-61
2022/05/27 08:16:54;;;;;;;3.23;1.90;;;21.20;37.00;;;;;;5054263;28;46288;-61
2022/05/27 08:19:20;;;;;;;5.27;1.63;;;21.20;37.70;;;;;;5046758;28;46738;-62
2022/05/27 08:21:45;;;;;;;6.13;2.40;;;21.50;37.70;;;;;;5057413;28;46477;-61
2022/05/27 08:24:11;;;;;;;5.20;2.00;;;21.50;37.30;;;;;;5049489;28;46994;-61
2022/05/27 08:26:38;;;;;;;6.03;1.73;;;21.80;36.50;;;;;;5048236;28;46327;-60
2022/05/27 08:29:04;;;;;;;8.23;1.90;;;21.90;35.80;;;;;;5046905;28;46377;-60
2022/05/27 08:31:29;;;;;;;3.80;1.30;;;21.90;36.40;;;;;;5048958;28;46467;-60
2022/05/27 08:39:39;;;;;;;4.00;1.47;;;22.60;34.90;;;;;;5050895;28;46471;-61
2022/05/27 08:42:24;;;;;;;4.73;1.77;;;22.20;34.70;;;;;;5048923;28;46542;-60
2022/05/27 08:45:13;;;;;;;3.87;1.67;;;22.40;35.40;;;;;;5048490;28;46390;-61
2022/05/27 08:47:48;;;;;;;7.23;1.50;;;22.40;34.40;;;;;;5048700;28;46584;-61
2022/05/27 08:50:26;;;;;;;4.37;1.60;;;23.10;33.40;;;;;;5049747;28;46845;-61
2022/05/27 08:52:59;;;;;;;3.60;1.50;;;23.40;32.60;;;;;;5048405;28;46423;-60
2022/05/27 09:01:13;;;;;;;3.70;1.60;;;22.50;33.40;;;;;;5050424;28;46417;-62
2022/05/27 09:03:45;;;;;;;4.17;1.50;;;22.40;33.20;;;;;;5045702;28;46513;-61
2022/05/27 09:06:13;;;;;;;5.10;1.57;;;22.40;32.90;;;;;;5052615;28;46217;-61
2022/05/27 09:08:39;;;;;;;8.83;1.77;;;22.60;32.50;;;;;;5044262;28;46476;-61
2022/05/27 09:11:41;;;;;;;3.90;1.60;;;22.40;33.40;;;;;;5052023;28;46631;-60
2022/05/27 09:14:10;;;;;;;3.57;1.60;;;22.10;34.10;;;;;;5046393;28;46558;-61
2022/05/27 09:16:48;;;;;;;3.77;1.40;;;22.10;34.40;;;;;;5050210;28;46555;-61
2022/05/27 09:19:33;;;;;;;4.30;1.60;;;22.30;34.10;;;;;;5053204;28;46341;-60
2022/05/27 09:22:24;;;;;;;3.43;1.60;;;22.50;33.90;;;;;;5055826;28;46373;-61
2022/05/27 09:25:01;;;;;;;6.70;1.80;;;22.60;33.80;;;;;;5052490;28;46567;-61
2022/05/27 09:27:47;;;;;;;3.90;1.50;;;22.60;33.20;;;;;;5056159;28;46480;-60
2022/05/27 09:30:16;;;;;;;3.37;1.37;;;22.30;33.70;;;;;;5043678;28;46429;-60
2022/05/27 09:32:53;;;;;;;3.30;1.50;;;22.40;34.00;;;;;;5054483;28;45780;-61
2022/05/27 09:35:31;;;;;;;3.10;1.40;;;22.60;33.30;;;;;;5052176;28;46428;-61
2022/05/27 09:38:01;;;;;;;4.80;1.70;;;22.90;33.20;;;;;;5053639;28;46371;-61
2022/05/27 09:40:32;;;;;;;5.73;1.30;;;23.50;32.30;;;;;;5052226;28;46363;-61
2022/05/27 09:43:10;;;;;;;4.30;1.40;;;23.80;32.00;;;;;;5049914;28;46374;-61
2022/05/27 09:45:36;;;;;;;5.10;1.50;;;23.50;31.10;;;;;;5046693;28;46457;-61
2022/05/27 09:48:06;;;;;;;2.43;1.30;;;23.40;31.30;;;;;;5051565;28;46421;-61
2022/05/27 09:50:46;;;;;;;4.00;1.40;;;23.70;31.30;;;;;;5049944;28;46418;-60
2022/05/27 09:53:18;;;;;;;6.40;1.50;;;23.50;32.60;;;;;;5049295;28;46389;-60
2022/05/27 09:55:47;;;;;;;5.17;1.60;;;23.10;32.10;;;;;;5050821;28;46426;-60
2022/05/27 09:58:12;;;;;;;2.57;1.30;;;22.90;32.90;;;;;;5048866;28;46493;-60
2022/05/27 10:00:38;;;;;;;4.00;1.70;;;22.60;32.70;;;;;;5046062;28;46540;-60
2022/05/27 10:03:25;;;;;;;4.40;1.30;;;22.20;32.80;;;;;;5044411;28;46688;-61
2022/05/27 10:05:53;;;;;;;4.73;1.60;;;21.80;33.60;;;;;;5048402;28;46412;-61
2022/05/27 10:08:32;;;;;;;3.67;1.40;;;22.10;34.40;;;;;;5045229;28;47734;-60
2022/05/27 10:11:53;;;;;;;4.93;1.50;;;22.40;34.30;;;;;;5047048;28;46402;-60
2022/05/27 10:14:23;;;;;;;5.10;1.60;;;22.70;33.10;;;;;;5038866;28;46423;-60
2022/05/27 10:17:09;;;;;;;3.70;1.50;;;23.00;33.20;;;;;;5038786;28;46595;-60
2022/05/27 10:19:40;;;;;;;5.93;1.77;;;23.70;31.80;;;;;;5044974;28;47263;-60
2022/05/27 10:22:27;;;;;;;2.70;1.40;;;23.90;30.90;;;;;;5052985;28;46323;-61
2022/05/27 10:25:06;;;;;;;8.77;1.87;;;24.00;30.50;;;;;;5054322;28;45878;-60
2022/05/27 10:27:34;;;;;;;7.43;1.60;;;23.30;30.90;;;;;;5045239;28;46299;-60
2022/05/27 10:30:06;;;;;;;4.40;1.60;;;23.10;31.40;;;;;;5053176;28;46357;-61
2022/05/27 10:32:39;;;;;;;6.97;1.60;;;23.20;31.30;;;;;;5059169;28;46286;-61
2022/05/27 10:35:29;;;;;;;4.20;1.50;;;23.00;30.50;;;;;;5061770;28;46520;-60
2022/05/27 10:38:19;;;;;;;4.63;1.80;;;22.80;30.90;;;;;;5054311;28;46465;-60
2022/05/27 10:40:59;;;;;;;3.20;1.53;;;22.80;30.80;;;;;;5048786;28;46478;-60
2022/05/27 10:44:07;;;;;;;5.17;1.80;;;23.40;32.40;;;;;;5051022;28;46422;-61
2022/05/27 10:46:47;;;;;;;4.40;1.63;;;23.50;31.10;;;;;;5047957;28;46496;-62
2022/05/27 10:49:25;;;;;;;6.10;1.63;;;23.70;30.00;;;;;;5045856;28;46385;-61
2022/05/27 10:51:54;;;;;;;4.63;1.83;;;23.60;30.40;;;;;;5050339;28;47014;-61
2022/05/27 10:54:34;;;;;;;4.93;1.50;;;23.10;30.80;;;;;;5046797;28;46360;-61
2022/05/27 11:03:12;;;;;;;4.83;1.77;;;22.50;33.20;;;;;;5050904;28;45911;-61
2022/05/27 11:05:44;;;;;;;11.10;1.50;;;22.70;33.80;;;;;;5048061;28;46426;-60
2022/05/27 11:08:26;;;;;;;5.70;1.60;;;23.00;33.10;;;;;;5044816;28;46424;-60
2022/05/27 11:11:16;;;;;;;3.27;1.50;;;23.10;33.60;;;;;;5049807;28;46563;-60
2022/05/27 11:17:00;;;;;;;4.87;1.47;;;23.80;32.50;;;;;;5044140;28;46609;-60
2022/05/27 11:19:41;;;;;;;4.20;1.53;;;23.60;30.90;;;;;;5046485;28;46441;-60
2022/05/27 11:22:23;;;;;;;5.93;1.77;;;23.40;31.20;;;;;;5046865;28;46338;-61
2022/05/27 11:25:07;;;;;;;4.33;1.50;;;22.90;30.50;;;;;;5048459;28;46713;-60
2022/05/27 11:27:52;;;;;;;6.90;1.73;;;22.50;32.50;;;;;;5048523;28;46430;-60
2022/05/27 11:30:43;;;;;;;4.97;1.70;;;22.60;33.10;;;;;;5056183;28;46334;-60
2022/05/27 11:33:34;;;;;;;3.67;1.50;;;22.60;32.90;;;;;;5045368;28;46770;-61
2022/05/27 11:36:18;;;;;;;3.47;1.60;;;23.00;32.70;;;;;;5049044;28;46692;-60
2022/05/27 11:38:56;;;;;;;5.93;1.70;;;23.20;32.10;;;;;;5047952;28;45815;-60
2022/05/27 11:41:37;;;;;;;6.17;2.00;;;23.10;31.60;;;;;;5048846;28;46283;-60
2022/05/27 11:44:12;;;;;;;4.00;1.60;;;23.30;32.40;;;;;;5042574;28;46350;-60
2022/05/27 11:47:00;;;;;;;3.50;1.70;;;23.10;31.60;;;;;;5049763;28;47288;-60
2022/05/27 11:49:28;;;;;;;7.10;1.63;;;23.20;32.50;;;;;;5055080;28;46376;-59
2022/05/27 11:52:12;;;;;;;5.00;1.60;;;23.10;34.00;;;;;;5051669;28;46354;-60
2022/05/27 11:54:56;;;;;;;4.60;1.80;;;23.10;33.00;;;;;;5054549;28;45799;-60
2022/05/27 11:57:32;;;;;;;8.13;1.77;;;23.00;32.90;;;;;;5047857;28;46401;-60
2022/05/27 12:00:01;;;;;;;3.70;1.67;;;22.90;33.10;;;;;;5049576;28;46366;-61
2022/05/27 12:02:57;;;;;;;4.60;1.80;;;22.90;32.20;;;;;;5051689;28;46602;-60
2022/05/27 12:05:48;;;;;;;4.83;1.70;;;22.80;33.00;;;;;;5048540;28;46384;-60
2022/05/27 12:08:23;;;;;;;4.00;1.53;;;22.70;34.50;;;;;;5048283;28;46480;-59
2022/05/27 12:10:59;;;;;;;5.47;1.83;;;22.70;34.50;;;;;;5047266;28;46823;-60
2022/05/27 12:13:49;;;;;;;6.30;1.83;;;23.00;34.10;;;;;;5054022;28;46424;-61
2022/05/27 12:16:18;;;;;;;4.37;1.50;;;23.30;33.80;;;;;;5045931;28;46386;-62
2022/05/27 12:18:44;;;;;;;3.40;1.50;;;23.40;33.40;;;;;;5047429;28;46481;-60
2022/05/27 12:21:14;;;;;;;2.80;1.40;;;23.40;33.70;;;;;;5048421;28;46423;-60
2022/05/27 12:23:45;;;;;;;4.20;1.50;;;23.60;33.50;;;;;;5046522;28;46524;-60
2022/05/27 12:26:11;;;;;;;4.20;1.37;;;23.80;32.70;;;;;;5048887;28;46395;-61
2022/05/27 12:28:41;;;;;;;3.10;1.60;;;23.80;32.70;;;;;;5045240;28;46521;-61
2022/05/27 12:31:09;;;;;;;5.40;1.50;;;23.80;31.90;;;;;;5049220;28;46299;-60
2022/05/27 12:33:36;;;;;;;2.87;1.60;;;23.60;31.80;;;;;;5050421;28;46707;-61
2022/05/27 12:36:25;;;;;;;4.57;1.83;;;23.70;31.40;;;;;;5049874;28;46512;-60
2022/05/27 12:38:53;;;;;;;5.07;1.47;;;24.00;30.60;;;;;;5050134;28;46926;-59
2022/05/27 12:41:37;;;;;;;4.67;1.70;;;23.70;29.40;;;;;;5044969;28;46436;-59
2022/05/27 12:44:22;;;;;;;3.70;1.60;;;23.40;29.70;;;;;;5051059;28;46482;-61
2022/05/27 12:46:58;;;;;;;5.90;1.70;;;23.50;30.00;;;;;;5047733;28;47354;-61
2022/05/27 12:49:41;;;;;;;11.40;1.97;;;23.90;30.00;;;;;;5050164;28;47305;-60
2022/05/27 12:52:28;;;;;;;5.07;2.00;;;23.80;29.90;;;;;;5054652;28;46649;-60
2022/05/27 12:54:54;;;;;;;9.73;1.60;;;24.00;30.00;;;;;;5058974;28;46490;-60
2022/05/27 13:03:37;;;;;;;4.37;1.43;;;23.90;30.10;;;;;;5051928;28;46587;-60
2022/05/27 13:06:26;;;;;;;3.60;1.40;;;23.70;31.70;;;;;;5047328;28;46446;-60
2022/05/27 13:08:51;;;;;;;3.30;2.10;;;23.50;31.70;;;;;;5048843;28;46447;-61
2022/05/27 13:11:23;;;;;;;3.77;1.63;;;23.40;30.90;;;;;;5049115;28;46921;-60
2022/05/27 13:14:03;;;;;;;3.70;1.53;;;23.40;31.50;;;;;;5046864;28;46463;-60
2022/05/27 13:16:44;;;;;;;3.87;1.70;;;23.70;31.90;;;;;;5049508;28;46603;-60
2022/05/27 13:19:26;;;;;;;2.70;1.50;;;24.20;30.00;;;;;;5070958;28;46361;-61
2022/05/27 13:21:52;;;;;;;5.77;1.30;;;23.90;28.00;;;;;;5059247;28;47980;-61
2022/05/27 13:24:18;;;;;;;2.37;1.27;;;23.60;28.90;;;;;;5054180;28;46530;-62
2022/05/27 13:26:46;;;;;;;6.70;1.67;;;23.50;29.50;;;;;;5053016;28;46573;-61
2022/05/27 13:29:33;;;;;;;8.53;2.00;;;23.50;30.00;;;;;;5052082;28;46334;-60
2022/05/27 13:32:25;;;;;;;3.17;1.40;;;23.70;31.10;;;;;;5051266;28;46410;-61
2022/05/27 13:35:13;;;;;;;2.47;1.43;;;23.80;29.40;;;;;;5053880;28;46457;-63
2022/05/27 13:37:39;;;;;;;4.30;1.80;;;23.70;28.90;;;;;;5055861;28;45927;-61
2022/05/27 13:40:16;;;;;;;3.47;1.77;;;23.80;29.00;;;;;;5051349;28;46397;-62
2022/05/27 13:42:41;;;;;;;8.37;1.70;;;24.20;29.00;;;;;;5058569;28;46416;-63
2022/05/27 13:45:30;;;;;;;8.73;1.80;;;24.20;28.50;;;;;;5048587;28;46326;-61
2022/05/27 13:48:01;;;;;;;4.50;1.60;;;24.40;28.50;;;;;;5049891;28;46449;-62
2022/05/27 13:50:35;;;;;;;4.43;2.03;;;24.30;28.50;;;;;;5049850;28;46354;-63